Terminal Aerodrome Forecast
Issued by NWS

Home | Current Version | Previous Version | Text Only | Print | Product List | Glossary On
Versions: 1 2 3 4 5 6 7 8 9 10 11 12
000
FTPA31 PHFO 011738
TAFHJH
TAF
PHJH 011738Z 0118/0218 05012G20KT P6SM SCT030 BKN045
     FM012100 06018G26KT P6SM FEW030 SCT045
     FM020500 08012KT P6SM SCT030 BKN045
      AMD NOT SKED AFT 020400=

USA.gov is the U.S. government's official web portal to all federal, state and local government web resources and services.